Time;durP1;ratioP1;P1;durP2;ratioP2;P2;SDS_P1;SDS_P2;PMS_P1;PMS_P2;Temp;Humidity;BMP_temperature;BMP_pressure;BME280_temperature;BME280_humidity;BME280_pressure;Samples;Min_cycle;Max_cycle;Signal;HPM_P1;HPM_P2
2022/09/26 00:01:22;;;;;;;7.80;5.68;;;;;;;9.76;93.82;100816.59;6095136;23;20006;-83
2022/09/26 00:03:51;;;;;;;8.18;5.53;;;;;;;9.77;94.03;100808.53;6095003;23;20012;-83
2022/09/26 00:06:17;;;;;;;8.00;5.88;;;;;;;9.81;93.83;100809.25;6093619;23;20437;-83
2022/09/26 00:08:45;;;;;;;8.65;6.18;;;;;;;9.79;94.27;100806.69;6092089;23;20057;-82
2022/09/26 00:11:12;;;;;;;7.80;6.30;;;;;;;9.81;94.11;100810.13;6094370;23;20404;-82
2022/09/26 00:13:40;;;;;;;8.18;6.40;;;;;;;9.82;94.27;100801.19;6093898;23;20484;-82
2022/09/26 00:16:05;;;;;;;10.07;6.40;;;;;;;9.83;94.44;100791.47;6091707;23;20034;-82
2022/09/26 00:18:31;;;;;;;9.70;6.70;;;;;;;9.84;94.50;100787.84;6089987;23;20025;-83
2022/09/26 00:21:04;;;;;;;8.55;6.20;;;;;;;9.82;94.47;100785.25;6065423;23;20010;-83
2022/09/26 00:23:29;;;;;;;10.18;6.70;;;;;;;9.85;94.56;100782.44;6091320;23;20427;-82
2022/09/26 00:25:56;;;;;;;7.57;6.55;;;;;;;9.87;94.67;100777.94;6066165;23;20378;-83
2022/09/26 00:28:21;;;;;;;7.65;6.45;;;;;;;9.90;94.50;100783.09;6090622;23;20460;-82
2022/09/26 00:30:46;;;;;;;8.73;6.53;;;;;;;9.89;94.29;100764.56;6091591;23;20006;-83
2022/09/26 00:33:12;;;;;;;10.63;6.10;;;;;;;9.93;94.11;100761.66;6090942;23;20006;-83
2022/09/26 00:35:37;;;;;;;8.93;6.78;;;;;;;9.96;93.89;100766.84;6090968;23;20063;-82
2022/09/26 00:38:04;;;;;;;6.85;5.75;;;;;;;10.01;93.70;100763.09;6090931;23;20002;-83
2022/09/26 00:40:30;;;;;;;8.38;6.32;;;;;;;10.01;93.82;100752.47;6090098;23;20312;-82
2022/09/26 00:42:57;;;;;;;10.40;6.43;;;;;;;10.01;93.64;100750.66;6090539;23;20030;-82
2022/09/26 00:45:28;;;;;;;8.85;6.50;;;;;;;10.04;93.96;100750.50;6090951;23;20427;-82
2022/09/26 00:48:04;;;;;;;9.23;6.20;;;;;;;10.10;92.81;100742.22;6090950;23;20081;-82
2022/09/26 00:50:40;;;;;;;11.82;6.63;;;;;;;10.14;92.86;100740.25;6090425;23;20016;-83
2022/09/26 00:53:13;;;;;;;8.35;6.18;;;;;;;10.16;92.55;100735.75;6090703;23;20010;-82
2022/09/26 00:55:44;;;;;;;8.57;5.88;;;;;;;10.16;91.94;100741.06;6091217;23;20410;-83
2022/09/26 00:58:15;;;;;;;8.75;5.80;;;;;;;10.18;92.03;100736.50;6089613;23;20069;-83
2022/09/26 01:00:43;;;;;;;7.53;5.28;;;;;;;10.18;92.09;100732.03;6090659;23;20007;-82
2022/09/26 01:03:08;;;;;;;8.38;5.03;;;;;;;10.17;91.96;100719.69;6090796;23;20017;-82
2022/09/26 01:05:35;;;;;;;6.32;5.20;;;;;;;10.25;91.88;100726.47;6090472;23;20002;-82
2022/09/26 01:08:01;;;;;;;7.25;5.20;;;;;;;10.19;91.54;100701.84;6094741;23;20092;-81
2022/09/26 01:10:28;;;;;;;6.95;5.15;;;;;;;10.28;91.74;100712.97;6105521;23;19995;-81
2022/09/26 01:12:55;;;;;;;8.05;5.47;;;;;;;10.27;91.59;100701.50;6109074;23;20007;-82
2022/09/26 01:15:21;;;;;;;8.93;5.03;;;;;;;10.26;91.74;100696.25;6105178;23;19998;-82
2022/09/26 01:17:46;;;;;;;6.43;4.78;;;;;;;10.21;91.42;100696.47;6092049;23;20105;-81
2022/09/26 01:20:24;;;;;;;6.22;4.90;;;;;;;10.20;91.78;100689.44;6091457;23;20086;-82
2022/09/26 01:23:04;;;;;;;6.40;4.85;;;;;;;10.19;92.13;100693.88;6093526;23;20006;-82
2022/09/26 01:25:59;;;;;;;6.55;4.97;;;;;;;10.13;92.59;100683.56;6091778;23;20020;-82
2022/09/26 01:29:10;;;;;;;9.27;4.82;;;;;;;10.17;92.18;100679.81;6066607;23;20097;-82
2022/09/26 01:31:41;;;;;;;6.53;4.88;;;;;;;10.15;92.32;100679.00;6087686;23;20006;-82
2022/09/26 01:34:20;;;;;;;9.30;5.03;;;;;;;10.14;92.44;100674.63;6091533;23;20009;-82
2022/09/26 01:37:27;;;;;;;6.95;4.90;;;;;;;10.09;92.79;100666.03;6091459;23;20373;-82
2022/09/26 01:39:58;;;;;;;7.78;5.00;;;;;;;10.13;92.66;100661.44;6064100;23;20036;-81
2022/09/26 01:42:44;;;;;;;5.97;4.78;;;;;;;10.11;92.10;100637.56;6091080;23;20006;-82
2022/09/26 01:45:17;;;;;;;7.10;4.88;;;;;;;10.12;92.19;100641.09;6090439;23;20013;-82
2022/09/26 01:47:57;;;;;;;6.38;4.35;;;;;;;10.11;92.32;100642.88;6090814;23;20010;-82
2022/09/26 01:50:33;;;;;;;7.80;4.72;;;;;;;10.07;92.11;100640.44;6090065;23;20042;-82
2022/09/26 01:53:18;;;;;;;4.93;4.30;;;;;;;10.06;92.58;100628.97;6090133;23;20014;-82
2022/09/26 01:56:16;;;;;;;8.13;4.95;;;;;;;10.06;92.13;100620.97;6090376;23;20456;-82
2022/09/26 01:58:48;;;;;;;4.85;4.13;;;;;;;10.01;92.02;100615.06;6064030;23;20006;-82
2022/09/26 02:01:17;;;;;;;5.00;3.90;;;;;;;10.02;92.21;100611.44;6063034;23;20021;-82
2022/09/26 02:04:00;;;;;;;6.13;4.63;;;;;;;10.01;92.09;100600.91;6090115;23;20081;-82
2022/09/26 02:06:55;;;;;;;5.57;3.85;;;;;;;10.03;91.73;100604.31;6088674;23;20105;-82
2022/09/26 02:09:42;;;;;;;6.70;4.18;;;;;;;9.94;91.71;100582.59;6084854;23;20017;-82
2022/09/26 02:12:12;;;;;;;5.82;4.10;;;;;;;9.96;92.12;100580.72;6090012;23;20014;-82
2022/09/26 02:14:40;;;;;;;7.85;4.70;;;;;;;9.96;91.64;100579.88;6063866;23;20014;-83
2022/09/26 02:17:12;;;;;;;7.35;3.95;;;;;;;9.95;91.66;100572.84;6088972;23;20032;-83
2022/09/26 02:19:55;;;;;;;8.65;4.68;;;;;;;9.94;91.61;100568.44;6089507;23;20073;-83
2022/09/26 02:22:22;;;;;;;8.05;4.40;;;;;;;9.90;91.43;100569.53;6092006;23;20009;-82
2022/09/26 02:24:48;;;;;;;7.20;4.10;;;;;;;9.88;91.51;100555.50;6091819;23;20469;-83
2022/09/26 02:27:13;;;;;;;6.50;4.18;;;;;;;9.88;91.43;100555.50;6067339;23;20011;-82
2022/09/26 02:29:39;;;;;;;7.28;4.00;;;;;;;9.86;91.32;100544.06;6097104;23;20425;-82
2022/09/26 02:32:14;;;;;;;8.15;4.05;;;;;;;9.85;91.23;100540.56;6098651;23;20086;-82
2022/09/26 02:34:41;;;;;;;7.07;3.95;;;;;;;9.83;91.22;100545.09;6095294;23;20021;-82
2022/09/26 02:37:08;;;;;;;7.25;4.10;;;;;;;9.85;91.17;100535.22;6069323;23;20105;-82
2022/09/26 02:39:34;;;;;;;8.07;3.95;;;;;;;9.85;90.88;100529.91;6092184;23;20065;-82
2022/09/26 02:42:16;;;;;;;7.88;4.07;;;;;;;9.87;90.57;100533.38;6093966;23;20010;-83
2022/09/26 02:44:49;;;;;;;6.50;3.97;;;;;;;9.87;90.23;100517.41;6094609;23;20073;-82
2022/09/26 02:47:30;;;;;;;5.88;4.00;;;;;;;9.93;89.92;100519.72;6093077;23;20081;-82
2022/09/26 02:50:10;;;;;;;6.03;3.60;;;;;;;9.92;89.94;100511.84;6093101;23;20006;-83
2022/09/26 02:52:38;;;;;;;5.53;3.70;;;;;;;9.92;89.94;100507.38;6093297;23;20086;-82
2022/09/26 02:55:20;;;;;;;6.28;4.15;;;;;;;9.92;89.61;100499.41;6093631;23;20006;-82
2022/09/26 02:57:52;;;;;;;8.20;3.60;;;;;;;9.95;89.58;100504.56;6092217;23;20014;-81
2022/09/26 03:00:22;;;;;;;5.80;3.90;;;;;;;9.94;89.39;100496.66;6092467;23;20337;-82
2022/09/26 03:02:55;;;;;;;5.90;3.45;;;;;;;9.93;89.20;100503.78;6093531;23;20006;-82
2022/09/26 03:05:28;;;;;;;5.65;3.25;;;;;;;9.94;89.04;100492.19;6092225;23;20322;-81
2022/09/26 03:08:06;;;;;;;5.20;3.35;;;;;;;9.94;88.87;100486.88;6092128;23;20022;-83
2022/09/26 03:10:33;;;;;;;5.93;2.95;;;;;;;9.94;89.01;100497.50;6093174;23;20010;-82
2022/09/26 03:13:09;;;;;;;9.35;3.08;;;;;;;9.93;88.61;100482.50;6093297;23;20018;-82
2022/09/26 03:15:37;;;;;;;7.50;3.60;;;;;;;9.93;88.69;100481.66;6093503;23;20014;-82
2022/09/26 03:18:06;;;;;;;7.38;3.33;;;;;;;9.92;88.58;100477.28;6092199;23;20012;-82
2022/09/26 03:20:32;;;;;;;5.30;3.05;;;;;;;9.91;88.63;100468.47;6093399;23;20038;-83
2022/09/26 03:22:57;;;;;;;4.40;2.90;;;;;;;9.88;88.47;100458.00;6092007;23;20203;-82
2022/09/26 03:25:26;;;;;;;5.95;3.17;;;;;;;9.92;88.02;100471.97;6092995;23;20081;-83
2022/09/26 03:27:52;;;;;;;6.78;3.28;;;;;;;9.91;88.47;100460.50;6091687;23;20333;-82
2022/09/26 03:30:20;;;;;;;7.43;3.10;;;;;;;9.91;88.07;100464.94;6092873;23;20007;-82
2022/09/26 03:32:45;;;;;;;5.43;2.92;;;;;;;9.91;87.98;100460.50;6093381;23;20032;-82
2022/09/26 03:35:11;;;;;;;7.95;3.00;;;;;;;9.93;87.17;100461.25;6093205;23;20427;-83
2022/09/26 03:37:36;;;;;;;5.30;2.72;;;;;;;9.90;87.61;100439.28;6091072;23;20012;-83
2022/09/26 03:40:11;;;;;;;5.07;2.80;;;;;;;9.91;87.28;100447.19;6092942;23;20322;-82
2022/09/26 03:42:37;;;;;;;5.80;3.20;;;;;;;9.94;86.92;100438.19;6092827;23;20010;-83
2022/09/26 03:45:07;;;;;;;7.22;3.17;;;;;;;9.93;86.87;100429.34;6091675;23;20437;-83
2022/09/26 03:47:32;;;;;;;6.90;2.90;;;;;;;9.90;87.06;100432.16;6090700;23;20069;-82
2022/09/26 03:49:58;;;;;;;3.95;2.70;;;;;;;9.92;87.15;100429.44;6091609;23;20010;-82
2022/09/26 03:52:24;;;;;;;5.38;3.03;;;;;;;9.89;86.90;100422.47;6066155;23;20036;-82
2022/09/26 03:54:50;;;;;;;12.15;3.15;;;;;;;9.91;86.94;100419.75;6095330;23;20015;-82
2022/09/26 03:57:16;;;;;;;4.50;2.70;;;;;;;9.91;86.56;100417.94;6099774;23;20068;-82
2022/09/26 03:59:42;;;;;;;5.13;2.90;;;;;;;9.90;86.41;100394.94;6102416;23;20018;-83
2022/09/26 04:02:07;;;;;;;4.60;2.63;;;;;;;9.91;86.56;100399.34;6098229;23;20520;-82
2022/09/26 04:04:33;;;;;;;5.75;2.58;;;;;;;9.86;86.71;100396.06;6097574;23;20053;-82
2022/09/26 04:06:59;;;;;;;6.10;2.90;;;;;;;9.78;89.06;100384.13;6093024;23;20014;-82
2022/09/26 04:09:25;;;;;;;5.40;3.22;;;;;;;9.54;91.34;100386.34;6093539;23;20002;-82
2022/09/26 04:11:51;;;;;;;6.50;2.97;;;;;;;9.32;92.90;100378.63;6092851;23;20092;-83
2022/09/26 04:14:17;;;;;;;6.45;3.20;;;;;;;9.17;93.45;100382.97;6093961;23;20017;-82
2022/09/26 04:16:42;;;;;;;5.53;3.28;;;;;;;9.03;93.78;100381.06;6094020;23;20002;-82
2022/09/26 04:19:08;;;;;;;7.47;3.65;;;;;;;8.97;94.60;100370.72;6066937;23;20010;-82
2022/09/26 04:21:34;;;;;;;10.15;3.20;;;;;;;8.91;94.60;100377.22;6092156;23;20085;-82
2022/09/26 04:24:01;;;;;;;5.18;3.13;;;;;;;8.89;94.51;100359.66;6065702;23;20003;-82
2022/09/26 04:26:27;;;;;;;6.03;3.22;;;;;;;8.88;95.24;100360.59;6065215;23;20013;-82
2022/09/26 04:28:55;;;;;;;4.57;3.10;;;;;;;8.87;95.68;100354.44;6065501;23;20348;-81
2022/09/26 04:31:21;;;;;;;4.40;3.00;;;;;;;8.88;95.87;100356.16;6065875;23;20061;-83
2022/09/26 04:33:47;;;;;;;6.93;3.38;;;;;;;8.91;95.19;100340.06;6068183;23;20010;-82
2022/09/26 04:36:14;;;;;;;6.30;3.50;;;;;;;8.97;95.09;100330.91;6092410;23;20002;-83
2022/09/26 04:38:40;;;;;;;6.63;3.22;;;;;;;9.04;94.81;100323.50;6092625;23;20417;-82
2022/09/26 04:41:08;;;;;;;5.93;3.55;;;;;;;9.12;94.16;100324.81;6093765;23;20029;-83
2022/09/26 04:43:35;;;;;;;7.15;3.88;;;;;;;9.17;94.70;100325.41;6092032;23;20010;-82
2022/09/26 04:46:00;;;;;;;7.47;3.78;;;;;;;9.13;94.59;100307.09;6091246;23;20057;-82
2022/09/26 04:48:27;;;;;;;6.93;3.67;;;;;;;9.13;94.16;100307.94;6089810;23;20030;-82
2022/09/26 04:50:53;;;;;;;6.90;3.35;;;;;;;9.14;93.94;100304.34;6091621;23;20017;-82
2022/09/26 04:53:18;;;;;;;6.93;3.47;;;;;;;9.14;93.82;100295.50;6091196;23;20420;-82
2022/09/26 04:55:44;;;;;;;6.30;3.42;;;;;;;9.17;94.00;100292.69;6090791;23;20446;-82
2022/09/26 04:58:10;;;;;;;6.93;3.45;;;;;;;9.17;93.73;100276.78;6090001;23;20010;-82
2022/09/26 05:00:35;;;;;;;6.55;3.75;;;;;;;9.21;93.38;100268.56;6091506;23;20006;-82
2022/09/26 05:03:01;;;;;;;6.30;3.80;;;;;;;9.26;93.38;100256.81;6090699;23;20003;-81
2022/09/26 05:05:29;;;;;;;5.22;3.72;;;;;;;9.25;93.06;100250.66;6065492;23;20085;-83
2022/09/26 05:07:55;;;;;;;8.02;3.95;;;;;;;9.32;92.52;100259.13;6090680;23;20189;-83
2022/09/26 05:10:21;;;;;;;13.18;4.85;;;;;;;9.32;92.59;100254.69;6092112;23;20002;-83
2022/09/26 05:12:46;;;;;;;11.75;4.13;;;;;;;9.34;92.58;100246.63;6096005;23;20358;-82
2022/09/26 05:15:12;;;;;;;6.88;4.10;;;;;;;9.35;92.52;100248.34;6097326;23;20022;-82
2022/09/26 05:17:37;;;;;;;11.60;4.40;;;;;;;9.36;92.52;100247.41;6099385;23;20569;-83
2022/09/26 05:20:07;;;;;;;10.93;4.97;;;;;;;9.31;92.63;100241.50;6101239;23;20077;-83
2022/09/26 05:22:32;;;;;;;11.95;4.85;;;;;;;9.35;93.10;100246.53;6100195;23;20002;-82
2022/09/26 05:27:42;;;;;;;;;;;;;;;9.30;92.18;100234.47;6094374;23;20069;-83
2022/09/26 05:30:07;;;;;;;10.10;5.10;;;;;;;9.12;94.12;100215.09;6092017;23;19917;-83
2022/09/26 05:32:33;;;;;;;10.45;5.00;;;;;;;9.04;96.14;100206.69;6091664;23;20012;-82
2022/09/26 05:34:58;;;;;;;11.20;5.53;;;;;;;8.92;97.51;100193.16;6068263;23;20013;-83
2022/09/26 05:37:23;;;;;;;7.10;4.35;;;;;;;8.90;98.44;100184.44;6092779;23;20062;-82
2022/09/26 05:42:33;;;;;;;;;;;;;;;8.80;97.08;100200.91;6091302;23;20037;-83
2022/09/26 05:45:02;;;;;;;10.55;4.53;;;;;;;8.71;98.96;100199.63;6091515;23;19945;-81
2022/09/26 05:47:31;;;;;;;8.57;4.90;;;;;;;8.61;100.00;100177.16;6085676;23;20010;-82
2022/09/26 05:49:56;;;;;;;9.63;5.03;;;;;;;8.65;100.00;100186.66;6090035;23;20069;-80
2022/09/26 05:52:22;;;;;;;10.63;5.30;;;;;;;8.60;100.00;100183.41;6089497;23;20010;-82
2022/09/26 05:54:47;;;;;;;10.90;5.30;;;;;;;8.64;100.00;100183.16;6090006;23;20006;-82
2022/09/26 05:57:12;;;;;;;9.05;4.88;;;;;;;8.59;100.00;100184.34;6089488;23;20361;-82
2022/09/26 05:59:37;;;;;;;9.73;5.47;;;;;;;8.60;100.00;100186.91;6089975;23;20702;-83
2022/09/26 06:02:04;;;;;;;9.60;4.50;;;;;;;8.61;100.00;100190.41;6088200;23;20010;-82
2022/09/26 06:04:30;;;;;;;7.40;4.75;;;;;;;8.62;100.00;100189.50;6088680;23;20021;-82
2022/09/26 06:06:56;;;;;;;8.15;4.80;;;;;;;8.63;100.00;100180.59;6062015;23;20018;-83
2022/09/26 06:09:21;;;;;;;8.82;5.80;;;;;;;8.61;100.00;100183.34;6089593;23;20006;-83
2022/09/26 06:11:47;;;;;;;7.32;4.57;;;;;;;8.63;100.00;100173.50;6088955;23;20007;-82
2022/09/26 06:14:12;;;;;;;8.95;4.72;;;;;;;8.60;100.00;100165.69;6088045;23;20010;-83
2022/09/26 06:16:37;;;;;;;8.27;5.57;;;;;;;8.60;100.00;100165.69;6086622;23;20010;-83
2022/09/26 06:19:03;;;;;;;6.70;4.60;;;;;;;8.63;100.00;100151.41;6088692;23;20366;-83
2022/09/26 06:21:28;;;;;;;10.30;4.95;;;;;;;8.66;100.00;100153.91;6089442;23;20011;-83
2022/09/26 06:23:53;;;;;;;13.77;5.85;;;;;;;8.67;100.00;100147.66;6088468;23;20297;-83
2022/09/26 06:26:24;;;;;;;8.57;4.50;;;;;;;8.72;100.00;100146.47;6061504;23;20449;-84
2022/09/26 06:28:58;;;;;;;7.93;4.32;;;;;;;8.76;100.00;100130.38;6065597;23;20429;-83
2022/09/26 06:31:24;;;;;;;12.65;4.90;;;;;;;8.79;100.00;100127.56;6088262;23;20006;-82
2022/09/26 06:33:52;;;;;;;12.05;6.05;;;;;;;8.78;100.00;100110.78;6063884;23;20006;-82
2022/09/26 06:36:17;;;;;;;10.07;5.00;;;;;;;8.88;100.00;100106.69;6089992;23;20028;-84
2022/09/26 06:38:43;;;;;;;7.90;4.68;;;;;;;8.91;100.00;100100.34;6100810;23;20013;-84
2022/09/26 06:41:08;;;;;;;16.08;5.20;;;;;;;8.95;100.00;100097.44;6077069;23;20022;-83
2022/09/26 06:43:33;;;;;;;9.45;5.10;;;;;;;9.00;100.00;100093.69;6101704;23;20006;-83
2022/09/26 06:45:59;;;;;;;8.15;4.53;;;;;;;9.02;100.00;100092.63;6092030;23;20039;-83
2022/09/26 06:48:24;;;;;;;8.68;4.43;;;;;;;9.03;100.00;100090.81;6085560;23;20009;-82
2022/09/26 06:50:51;;;;;;;7.35;3.83;;;;;;;9.03;100.00;100081.09;6064044;23;20470;-81
2022/09/26 06:53:17;;;;;;;8.50;4.10;;;;;;;9.02;100.00;100079.34;6090922;23;20016;-84
2022/09/26 06:55:42;;;;;;;6.22;3.90;;;;;;;9.03;100.00;100066.94;6091342;23;20038;-84
2022/09/26 06:58:08;;;;;;;7.22;3.88;;;;;;;9.10;99.97;100055.03;6093185;23;20007;-84
2022/09/26 07:00:34;;;;;;;6.10;3.50;;;;;;;9.15;98.93;100043.19;6092515;23;20029;-83
2022/09/26 07:03:00;;;;;;;8.52;4.00;;;;;;;9.20;99.50;100032.34;6090855;23;20043;-84
2022/09/26 07:05:25;;;;;;;7.90;4.13;;;;;;;9.29;99.69;100037.09;6089455;23;20077;-83
2022/09/26 07:07:52;;;;;;;5.68;3.50;;;;;;;9.35;99.75;100042.03;6088650;23;20441;-84
2022/09/26 07:10:18;;;;;;;6.35;3.70;;;;;;;9.41;99.09;100044.34;6064022;23;20010;-83
2022/09/26 07:12:46;;;;;;;7.55;3.40;;;;;;;9.51;96.91;100033.19;6089364;23;20010;-84
2022/09/26 07:15:16;;;;;;;6.47;3.30;;;;;;;9.61;96.74;100032.53;6087522;23;20417;-84
2022/09/26 07:17:43;;;;;;;8.20;2.78;;;;;;;9.73;95.54;100037.09;6089321;23;20013;-85
2022/09/26 07:20:14;;;;;;;4.85;3.03;;;;;;;9.79;94.90;100025.28;6090814;23;20312;-84
2022/09/26 07:22:42;;;;;;;8.43;3.35;;;;;;;9.86;94.43;100018.63;6066523;23;20116;-84
2022/09/26 07:25:07;;;;;;;6.60;3.70;;;;;;;9.91;94.79;100015.72;6088735;23;20425;-84
2022/09/26 07:27:33;;;;;;;5.88;3.20;;;;;;;9.96;94.20;100010.94;6088749;23;20029;-83
2022/09/26 07:29:58;;;;;;;5.97;3.25;;;;;;;10.03;94.62;100000.78;6087009;23;20046;-83
2022/09/26 07:32:24;;;;;;;6.18;3.30;;;;;;;10.05;93.56;100004.22;6088696;23;20002;-84
2022/09/26 07:34:50;;;;;;;5.25;2.92;;;;;;;10.02;93.54;100002.59;6088761;23;20006;-83
2022/09/26 07:37:16;;;;;;;7.03;3.33;;;;;;;9.97;93.73;100007.34;6090250;23;20385;-84
2022/09/26 07:39:41;;;;;;;6.50;2.90;;;;;;;9.91;93.80;100000.59;6089753;23;20113;-84
2022/09/26 07:42:07;;;;;;;5.15;3.15;;;;;;;9.89;94.13;100004.28;6089951;23;20351;-84
2022/09/26 07:44:33;;;;;;;5.55;3.30;;;;;;;9.88;93.90;100005.25;6089772;23;20352;-84
2022/09/26 07:52:27;;;;;;;4.70;3.00;;;;;;;10.16;92.66;99999.09;6088436;23;20044;-85
2022/09/26 07:54:52;;;;;;;6.50;3.22;;;;;;;10.19;92.42;99988.25;6089876;23;20002;-84
2022/09/26 07:57:18;;;;;;;5.68;3.45;;;;;;;10.18;92.76;99991.84;6088564;23;20017;-84
2022/09/26 07:59:44;;;;;;;6.93;3.40;;;;;;;10.21;92.67;99989.00;6064809;23;20305;-84
2022/09/26 08:02:24;;;;;;;3.88;3.08;;;;;;;10.23;92.30;99985.28;6093965;23;20081;-83
2022/09/26 08:04:49;;;;;;;5.95;3.28;;;;;;;10.26;91.89;99983.44;6092706;23;20017;-84
2022/09/26 08:07:15;;;;;;;4.80;3.30;;;;;;;10.32;92.32;99981.22;6093866;23;20010;-84
2022/09/26 08:09:41;;;;;;;5.03;2.88;;;;;;;10.31;91.44;99973.34;6096659;23;20033;-84
2022/09/26 08:12:06;;;;;;;6.25;2.95;;;;;;;10.39;91.23;99977.22;6095874;23;20033;-83
2022/09/26 08:14:32;;;;;;;6.18;2.97;;;;;;;10.43;91.52;99968.09;6095141;23;20577;-83
2022/09/26 08:16:57;;;;;;;6.80;2.60;;;;;;;10.51;91.46;99964.94;6098842;23;20752;-83
2022/09/26 08:19:23;;;;;;;7.25;2.83;;;;;;;10.58;90.77;99965.41;6090618;23;20006;-84
2022/09/26 08:21:48;;;;;;;6.38;3.00;;;;;;;10.65;90.51;99951.59;6093496;23;20384;-84
2022/09/26 08:24:14;;;;;;;4.28;2.67;;;;;;;10.76;90.25;99958.88;6092196;23;20002;-84
2022/09/26 08:26:39;;;;;;;5.07;2.83;;;;;;;10.77;89.56;99941.94;6092217;23;20010;-85
2022/09/26 08:29:09;;;;;;;6.45;2.92;;;;;;;10.79;89.45;99965.81;6093970;23;20006;-83
2022/09/26 08:31:36;;;;;;;6.72;2.90;;;;;;;10.75;89.56;99954.53;6094280;23;20012;-84
2022/09/26 08:34:01;;;;;;;5.85;3.15;;;;;;;10.76;89.96;99955.38;6093042;23;20006;-85
2022/09/26 08:36:26;;;;;;;4.82;3.10;;;;;;;10.71;89.86;99963.66;6065317;23;20012;-84
2022/09/26 08:38:51;;;;;;;8.57;3.05;;;;;;;10.63;90.48;99952.66;6091157;23;20007;-82
2022/09/26 08:41:32;;;;;;;7.10;2.80;;;;;;;10.59;90.23;99937.84;6064104;23;20022;-84
2022/09/26 08:44:04;;;;;;;4.93;2.95;;;;;;;10.58;90.65;99944.97;6091419;23;20053;-84
2022/09/26 08:49:35;;;;;;;4.72;3.10;;;;;;;10.60;91.12;99936.88;6099977;23;20045;-84
2022/09/26 08:52:25;;;;;;;5.53;2.78;;;;;;;10.66;90.64;99947.16;6065793;23;20101;-84
2022/09/26 08:54:53;;;;;;;6.38;3.25;;;;;;;10.74;90.63;99934.16;6090659;23;20470;-84
2022/09/26 08:57:43;;;;;;;6.00;2.90;;;;;;;10.91;89.76;99933.03;6092752;23;20719;-84
2022/09/26 09:00:12;;;;;;;4.70;2.78;;;;;;;11.00;89.20;99923.63;6094841;23;20018;-83
2022/09/26 09:02:43;;;;;;;5.68;2.97;;;;;;;11.08;89.17;99926.63;6094092;23;20002;-84
2022/09/26 09:05:23;;;;;;;6.07;2.70;;;;;;;11.22;88.54;99927.38;6069093;23;20015;-84
2022/09/26 09:07:52;;;;;;;7.43;3.47;;;;;;;11.33;88.26;99925.78;6095780;23;20390;-83
2022/09/26 09:10:30;;;;;;;4.32;3.00;;;;;;;11.39;87.76;99909.38;6069650;23;20003;-83
2022/09/26 09:12:59;;;;;;;5.25;2.50;;;;;;;11.35;87.41;99919.38;6092726;23;20010;-83
2022/09/26 09:15:33;;;;;;;2.97;2.67;;;;;;;11.33;87.78;99915.13;6093739;23;20006;-83
2022/09/26 09:18:07;;;;;;;4.47;2.90;;;;;;;11.33;87.27;99915.13;6065694;23;20006;-83
2022/09/26 09:21:07;;;;;;;3.88;2.75;;;;;;;11.41;87.73;99912.78;6093177;23;20433;-84
2022/09/26 09:23:32;;;;;;;8.05;2.97;;;;;;;11.46;88.08;99903.53;6104572;23;20425;-83
2022/09/26 09:26:10;;;;;;;8.75;3.00;;;;;;;11.41;89.35;99899.44;6109634;23;20018;-84
2022/09/26 09:29:03;;;;;;;5.53;3.50;;;;;;;11.20;92.45;99907.13;6111999;23;20026;-84
2022/09/26 09:31:34;;;;;;;4.43;3.30;;;;;;;10.73;95.69;99893.38;6098225;23;20006;-84
2022/09/26 09:34:04;;;;;;;10.18;3.92;;;;;;;10.64;97.98;99890.50;6097065;23;20003;-84
2022/09/26 09:36:39;;;;;;;6.20;3.50;;;;;;;10.63;99.83;99883.47;6095735;23;20002;-83
2022/09/26 09:39:08;;;;;;;6.88;4.15;;;;;;;10.68;100.00;99887.53;6094763;23;20088;-84
2022/09/26 09:41:40;;;;;;;6.40;4.00;;;;;;;10.64;100.00;99880.69;6067064;23;20085;-84
2022/09/26 09:44:15;;;;;;;7.15;4.18;;;;;;;10.57;100.00;99866.09;6067564;23;20033;-84
2022/09/26 09:46:41;;;;;;;6.03;3.95;;;;;;;10.55;100.00;99862.69;6093624;23;20037;-84
2022/09/26 09:49:21;;;;;;;7.57;4.35;;;;;;;10.63;100.00;99851.53;6091381;23;20036;-85
2022/09/26 09:52:05;;;;;;;7.63;4.40;;;;;;;10.70;100.00;99839.50;6091965;23;20014;-84
2022/09/26 09:54:40;;;;;;;;;;;;;;;10.74;99.11;99846.31;6091374;23;20012;-84
2022/09/26 09:57:23;;;;;;;5.53;3.80;;;;;;;10.79;100.00;99836.25;6091816;23;19912;-85
2022/09/26 10:00:02;;;;;;;12.27;4.50;;;;;;;10.78;100.00;99834.53;6091832;23;20003;-84
2022/09/26 10:02:53;;;;;;;8.15;4.28;;;;;;;10.76;100.00;99830.28;6091050;23;20093;-85
2022/09/26 10:05:34;;;;;;;7.65;4.13;;;;;;;10.62;100.00;99828.56;6068698;23;20017;-84
2022/09/26 10:08:01;;;;;;;8.65;4.28;;;;;;;10.62;100.00;99820.56;6089843;23;20018;-84
2022/09/26 10:10:38;;;;;;;6.97;4.60;;;;;;;10.59;100.00;99818.97;6089197;23;20501;-85
2022/09/26 10:13:05;;;;;;;8.88;4.00;;;;;;;10.57;100.00;99807.56;6091200;23;20002;-85
2022/09/26 10:15:31;;;;;;;9.90;4.47;;;;;;;10.61;100.00;99813.53;6090623;23;20400;-86
2022/09/26 10:18:07;;;;;;;8.13;4.07;;;;;;;10.67;100.00;99802.47;6090996;23;20381;-85
2022/09/26 10:20:39;;;;;;;7.80;4.30;;;;;;;10.61;100.00;99798.41;6090950;23;20010;-85
2022/09/26 10:23:20;;;;;;;9.38;4.20;;;;;;;10.72;100.00;99800.34;6088397;23;20045;-85
2022/09/26 10:25:48;;;;;;;8.70;4.30;;;;;;;10.83;100.00;99799.63;6090147;23;20038;-85
2022/09/26 10:28:34;;;;;;;6.70;4.43;;;;;;;10.86;100.00;99791.41;6091421;23;20022;-84
2022/09/26 10:31:10;;;;;;;6.07;4.10;;;;;;;10.87;100.00;99798.47;6090143;23;20409;-84
2022/09/26 10:33:42;;;;;;;5.78;3.90;;;;;;;10.80;100.00;99790.03;6089089;23;20007;-84
2022/09/26 10:36:18;;;;;;;7.32;3.83;;;;;;;10.70;100.00;99783.63;6088812;23;20137;-85
2022/09/26 10:41:41;;;;;;;10.02;4.20;;;;;;;10.59;100.00;99770.22;6090611;23;20025;-83
2022/09/26 10:44:41;;;;;;;7.80;4.25;;;;;;;10.60;100.00;99772.75;6089258;23;20025;-85
2022/09/26 10:47:14;;;;;;;7.13;3.95;;;;;;;10.56;100.00;99770.41;6064277;23;20373;-83
2022/09/26 10:49:54;;;;;;;7.93;4.18;;;;;;;10.46;100.00;99765.72;6091698;23;20010;-83
2022/09/26 10:52:22;;;;;;;5.47;4.55;;;;;;;10.53;100.00;99767.94;6096302;23;20002;-83
2022/09/26 10:55:00;;;;;;;8.23;4.35;;;;;;;10.58;100.00;99769.38;6102261;23;20032;-83
2022/09/26 10:57:33;;;;;;;7.20;4.18;;;;;;;10.60;100.00;99754.13;6102949;23;20013;-83
2022/09/26 11:00:00;;;;;;;7.25;3.95;;;;;;;10.59;100.00;99752.44;6106657;23;20014;-84
2022/09/26 11:02:26;;;;;;;7.15;4.50;;;;;;;10.60;100.00;99750.63;6102943;23;20075;-84
2022/09/26 11:07:45;;;;;;;7.30;4.15;;;;;;;10.61;100.00;99747.00;6093853;23;20362;-86
2022/09/26 11:10:13;;;;;;;6.32;3.63;;;;;;;10.56;100.00;99749.13;6092039;23;20006;-85
2022/09/26 11:12:55;;;;;;;7.85;3.97;;;;;;;10.48;100.00;99739.00;6093522;23;20018;-85
2022/09/26 11:15:22;;;;;;;8.45;4.03;;;;;;;10.48;100.00;99737.19;6091839;23;20007;-84
2022/09/26 11:17:50;;;;;;;6.75;4.22;;;;;;;10.51;100.00;99748.59;6094036;23;20012;-85
2022/09/26 11:20:34;;;;;;;8.52;4.68;;;;;;;10.48;100.00;99750.50;6092053;23;20496;-85
2022/09/26 11:23:33;;;;;;;6.20;4.03;;;;;;;10.44;100.00;99746.34;6093072;23;20006;-85
2022/09/26 11:26:17;;;;;;;8.93;4.30;;;;;;;10.45;100.00;99732.09;6090980;23;20018;-85
2022/09/26 11:28:48;;;;;;;8.15;4.88;;;;;;;10.40;100.00;99736.84;6092568;23;20094;-87
2022/09/26 11:31:28;;;;;;;9.85;5.30;;;;;;;10.46;100.00;99732.94;6092344;23;20477;-85
2022/09/26 11:33:58;;;;;;;10.15;4.95;;;;;;;10.47;100.00;99722.19;6091339;23;20013;-86
2022/09/26 11:36:59;;;;;;;7.97;4.38;;;;;;;10.43;100.00;99727.81;6091541;23;20350;-85
2022/09/26 11:40:05;;;;;;;9.05;5.40;;;;;;;10.44;100.00;99706.44;6093318;23;20081;-85
2022/09/26 11:42:54;;;;;;;10.38;5.35;;;;;;;10.54;100.00;99697.84;6091482;23;20086;-85
2022/09/26 11:45:47;;;;;;;9.88;5.10;;;;;;;10.47;100.00;99695.59;6091114;23;20038;-85
2022/09/26 11:48:34;;;;;;;8.48;4.57;;;;;;;10.52;100.00;99699.75;6091794;23;19998;-85
2022/09/26 11:51:09;;;;;;;10.02;5.32;;;;;;;10.45;100.00;99700.19;6092097;23;20006;-85
2022/09/26 11:54:19;;;;;;;6.57;4.63;;;;;;;10.45;100.00;99702.00;6091766;23;20520;-85
2022/09/26 11:56:53;;;;;;;8.65;5.38;;;;;;;10.44;100.00;99687.81;6095760;23;20030;-86
2022/09/26 11:59:18;;;;;;;;;;;;;;;10.45;100.00;99694.84;6097164;23;20443;-86
2022/09/26 12:01:54;;;;;;;8.60;5.15;;;;;;;10.42;100.00;99696.88;6091979;23;19976;-85
2022/09/26 12:04:38;;;;;;;6.53;5.45;;;;;;;10.41;100.00;99693.38;6089401;23;20022;-83
2022/09/26 12:07:17;;;;;;;8.13;5.38;;;;;;;10.34;100.00;99686.75;6090700;23;20014;-86